ADDS METAR Data INFO
IDs: Format: Raw Decoded Include TAF

Data at: 0153 UTC 22 Jun 2018

KSET 220054Z AUTO 21005KT 10SM BKN090 20/18 A2969 RMK AO2 SLP051 T02000183
No TAF found for KSET

KSTL 220151Z 23005KT 10SM FEW060 SCT100 BKN130 22/16 A2971 RMK AO2 SLP051 T02220161

KSTL 212321Z 2200/2306 27008KT P6SM VCSH OVC070
  TEMPO 2200/2203 27025G30KT
  FM220700 27004KT P6SM VCSH OVC030
  FM221300 28005KT P6SM VCSH OVC015
  FM221700 29008KT 6SM -SHRA OVC025
  FM222200 31009KT 6SM -SHRA OVC035
  FM230200 31006KT P6SM BKN030